createdAt,value
2018-07-15T07:07:06.667Z,23.30
2018-07-15T07:09:35.709Z,23.50
2018-07-15T07:12:05.107Z,23.90
2018-07-15T07:14:33.804Z,24.20
2018-07-15T07:17:05.676Z,24.50
2018-07-15T07:19:37.669Z,24.80
2018-07-15T07:22:13.933Z,25.10
2018-07-15T07:24:42.750Z,25.50
2018-07-15T07:27:11.310Z,25.90
2018-07-15T07:29:40.095Z,26.30
2018-07-15T07:32:08.984Z,26.70
2018-07-15T07:34:43.381Z,27.30
2018-07-15T07:37:11.800Z,27.70
2018-07-15T07:39:40.340Z,27.90
2018-07-15T07:42:08.991Z,28.00
2018-07-15T07:44:40.397Z,28.10
2018-07-15T07:51:00.954Z,28.60
2018-07-15T07:53:29.774Z,29.00
2018-07-15T07:55:58.241Z,29.20
2018-07-15T07:58:29.992Z,29.40
2018-07-15T08:00:58.722Z,29.20
2018-07-15T08:03:28.225Z,29.40
2018-07-15T08:05:57.393Z,29.60
2018-07-15T08:08:27.109Z,30.10
2018-07-15T08:10:56.369Z,30.80
2018-07-15T08:13:25.164Z,31.30
2018-07-15T08:16:04.269Z,31.70
2018-07-15T08:18:32.920Z,31.80
2018-07-15T08:21:01.798Z,31.80
2018-07-15T08:23:30.919Z,31.90
2018-07-15T08:26:00.103Z,32.40
2018-07-15T08:28:28.984Z,32.70
2018-07-15T08:31:06.944Z,32.90
2018-07-15T08:33:35.419Z,32.90
2018-07-15T08:36:04.081Z,33.20
2018-07-15T08:46:24.048Z,33.60
2018-07-15T08:48:52.478Z,33.80
2018-07-15T08:51:21.324Z,34.10
2018-07-15T08:53:50.149Z,34.40
2018-07-15T08:56:19.195Z,34.90
2018-07-15T08:58:48.496Z,35.20
2018-07-15T09:01:17.983Z,35.60
2018-07-15T09:03:46.979Z,35.50
2018-07-15T09:06:16.073Z,36.00
2018-07-15T09:08:45.104Z,36.40
2018-07-15T09:11:13.731Z,36.50
2018-07-15T09:13:42.259Z,36.60
2018-07-15T09:16:10.711Z,37.10
2018-07-15T09:18:39.241Z,38.20
2018-07-15T09:21:07.719Z,38.50
2018-07-15T09:23:36.251Z,38.40
2018-07-15T09:26:05.018Z,38.20
2018-07-15T09:28:41.601Z,38.00
2018-07-15T09:31:11.636Z,37.80
2018-07-15T09:33:40.160Z,37.80
2018-07-15T09:36:08.799Z,38.10
2018-07-15T09:38:43.817Z,38.00
2018-07-15T09:41:13.156Z,37.60
2018-07-15T09:44:04.131Z,37.70
2018-07-15T09:46:32.884Z,37.50
2018-07-15T09:50:10.956Z,37.40
2018-07-15T09:52:39.709Z,37.50
2018-07-15T09:55:08.759Z,37.60
2018-07-15T09:57:37.662Z,37.40
2018-07-15T10:00:07.317Z,37.30
2018-07-15T10:02:38.132Z,37.20
2018-07-15T10:05:06.741Z,37.20
2018-07-15T10:07:35.648Z,37.40
2018-07-15T10:10:04.419Z,37.30
2018-07-15T10:12:37.114Z,37.10
2018-07-15T10:15:06.211Z,37.30
2018-07-15T10:17:34.817Z,37.20
2018-07-15T10:20:03.704Z,37.30
2018-07-15T10:22:33.433Z,37.50
2018-07-15T10:50:02.541Z,40.60
2018-07-15T10:52:32.060Z,40.40
2018-07-15T10:55:00.538Z,41.00
2018-07-15T10:57:29.143Z,42.10
2018-07-15T10:59:57.589Z,42.40
2018-07-15T11:02:26.117Z,43.10
2018-07-15T11:04:54.606Z,44.30
2018-07-15T11:07:23.474Z,44.60
2018-07-15T11:10:06.668Z,44.80
2018-07-15T11:15:33.338Z,45.50
2018-07-15T11:18:20.087Z,45.70
2018-07-15T11:20:48.536Z,46.10
2018-07-15T11:23:17.086Z,45.70
2018-07-15T11:25:45.582Z,45.50
2018-07-15T11:28:14.468Z,44.60
2018-07-15T11:30:42.944Z,45.30
2018-07-15T11:33:11.420Z,45.70
2018-07-15T11:35:40.170Z,45.50
2018-07-15T11:38:09.334Z,45.30
2018-07-15T11:40:38.007Z,45.50
2018-07-15T11:43:06.544Z,45.90
2018-07-15T11:45:35.256Z,47.10
2018-07-15T11:48:03.816Z,47.90
2018-07-15T12:36:46.683Z,42.90
2018-07-15T13:14:36.934Z,38.80
2018-07-15T13:29:52.539Z,38.60
2018-07-15T14:11:21.524Z,34.40
2018-07-15T15:03:41.236Z,31.80
2018-07-15T15:09:05.131Z,30.60
2018-07-15T15:11:55.114Z,30.20
2018-07-15T15:14:26.908Z,30.10
2018-07-15T15:16:55.503Z,29.70
2018-07-15T15:24:10.632Z,29.00
2018-07-15T15:26:39.328Z,28.80
2018-07-15T15:29:08.068Z,28.80
2018-07-15T15:31:36.683Z,28.90
2018-07-15T15:34:07.249Z,28.90
2018-07-15T15:36:36.067Z,28.70
2018-07-15T15:39:05.632Z,28.50
2018-07-15T15:41:34.708Z,28.70
2018-07-15T15:44:05.430Z,28.60
2018-07-15T15:46:34.289Z,28.40
2018-07-15T15:49:02.867Z,28.30
2018-07-15T15:51:49.935Z,28.20
2018-07-15T15:54:18.830Z,27.90
2018-07-15T15:56:52.328Z,27.50
2018-07-15T16:05:09.352Z,27.10
2018-07-15T16:07:47.027Z,27.00
2018-07-15T16:10:33.261Z,26.90
2018-07-15T16:13:01.743Z,26.80
2018-07-15T16:15:30.290Z,26.70
2018-07-15T16:17:59.308Z,26.60
2018-07-15T16:21:00.013Z,26.70
2018-07-15T16:23:35.556Z,26.80
2018-07-15T16:26:15.556Z,26.80
2018-07-15T16:28:44.089Z,26.80
2018-07-15T16:34:15.731Z,26.60
2018-07-15T16:36:44.286Z,26.40
2018-07-15T16:39:13.279Z,26.30
2018-07-15T16:41:41.876Z,26.30
2018-07-15T16:44:11.489Z,26.10
2018-07-15T16:46:40.251Z,25.90
2018-07-15T16:49:10.944Z,25.60
2018-07-15T16:51:41.780Z,25.50
2018-07-15T16:54:42.485Z,25.20
2018-07-15T16:57:11.590Z,25.10
2018-07-15T16:59:40.353Z,25.00
2018-07-15T17:02:09.096Z,24.90
2018-07-15T17:04:37.782Z,24.90
2018-07-15T17:07:11.385Z,24.80
2018-07-15T17:09:40.456Z,24.60
2018-07-15T17:12:10.798Z,24.50
2018-07-15T17:14:39.478Z,24.40
2018-07-15T17:17:08.415Z,24.30
2018-07-15T17:19:37.300Z,24.10
2018-07-15T17:22:06.063Z,23.90
2018-07-15T17:24:36.943Z,23.60
2018-07-15T17:27:07.769Z,23.20
2018-07-15T17:29:36.453Z,23.00
2018-07-15T17:32:05.355Z,22.80
2018-07-15T17:34:34.213Z,22.70
2018-07-15T17:37:03.116Z,22.70
2018-07-15T17:39:32.117Z,22.70
2018-07-15T17:42:00.729Z,22.60
2018-07-15T17:44:29.438Z,22.60
2018-07-15T17:46:59.160Z,22.60
2018-07-15T17:49:27.711Z,22.70
2018-07-15T17:51:56.411Z,22.70
2018-07-15T17:54:25.130Z,22.70
2018-07-15T17:56:53.644Z,22.60
2018-07-15T17:59:23.115Z,22.40
2018-07-15T18:01:51.752Z,22.30
2018-07-15T18:04:20.513Z,22.30
2018-07-15T18:06:48.953Z,22.20
2018-07-15T18:09:17.744Z,22.10
2018-07-15T18:11:46.328Z,21.90
2018-07-15T18:14:39.717Z,21.80
2018-07-15T18:17:14.772Z,21.70
2018-07-15T18:19:43.486Z,21.50
2018-07-15T18:22:12.279Z,21.40
2018-07-15T18:24:40.799Z,21.30
2018-07-15T18:27:09.404Z,21.30
2018-07-15T18:29:38.021Z,21.40
2018-07-15T18:32:06.810Z,21.40
2018-07-15T18:34:36.264Z,21.40
2018-07-15T18:37:05.068Z,21.40
2018-07-15T18:39:36.043Z,21.50
2018-07-15T18:42:05.542Z,21.60
2018-07-15T18:49:11.985Z,21.80
2018-07-15T18:51:41.660Z,21.80
2018-07-15T18:54:10.320Z,21.80
2018-07-15T18:56:39.662Z,21.70
2018-07-15T18:59:11.458Z,21.60
2018-07-15T19:01:43.167Z,21.50
2018-07-15T19:04:13.581Z,21.40
2018-07-15T19:06:42.187Z,21.40
2018-07-15T19:09:11.272Z,21.30
2018-07-15T19:17:28.700Z,21.20
2018-07-15T19:20:20.140Z,21.20
2018-07-15T19:22:51.942Z,21.00
2018-07-15T19:25:23.228Z,21.00
2018-07-15T19:27:55.826Z,21.00
2018-07-15T19:30:24.343Z,21.00
2018-07-15T19:32:55.514Z,21.00
2018-07-15T19:35:25.302Z,21.10
2018-07-15T19:37:54.894Z,21.10
2018-07-15T19:40:23.749Z,21.00
2018-07-15T19:42:52.457Z,20.90
2018-07-15T19:45:23.167Z,20.80
2018-07-15T19:47:51.891Z,20.70
2018-07-15T19:50:20.506Z,20.60
2018-07-15T19:52:49.343Z,20.40
2018-07-15T19:55:17.875Z,20.30
2018-07-15T19:57:46.829Z,20.20
2018-07-15T20:00:15.566Z,20.20
2018-07-15T20:02:44.446Z,20.10
2018-07-15T20:05:13.128Z,20.10
2018-07-15T20:07:41.657Z,20.00
2018-07-15T20:10:10.418Z,20.00
2018-07-15T20:12:39.006Z,19.90
2018-07-15T20:15:07.690Z,19.90
2018-07-15T20:17:36.349Z,19.90
2018-07-15T20:20:05.067Z,19.80
2018-07-15T20:22:33.832Z,19.80
2018-07-15T20:25:02.773Z,19.80
2018-07-15T20:27:37.861Z,19.70
2018-07-15T20:30:06.480Z,19.70
2018-07-15T20:32:35.108Z,19.60
2018-07-15T20:35:04.372Z,19.60
2018-07-15T20:37:33.051Z,19.50
2018-07-15T20:40:01.693Z,19.50
2018-07-15T20:42:30.488Z,19.40
2018-07-15T20:44:59.089Z,19.30
2018-07-15T20:47:27.725Z,19.20
2018-07-15T20:49:56.464Z,19.10
2018-07-15T20:52:25.574Z,19.00
2018-07-15T20:54:54.233Z,18.90
2018-07-15T20:57:23.437Z,18.90
2018-07-15T20:59:52.118Z,18.70
2018-07-15T21:02:21.558Z,18.70
2018-07-15T21:04:50.246Z,18.60
2018-07-15T21:07:19.204Z,18.50
2018-07-15T21:09:47.788Z,18.50
2018-07-15T21:12:16.578Z,18.50
2018-07-15T21:14:45.350Z,18.50
2018-07-15T21:17:14.212Z,18.40
2018-07-15T21:19:45.305Z,18.40
2018-07-15T21:22:14.205Z,18.40
2018-07-15T21:24:43.043Z,18.30
2018-07-15T21:27:11.694Z,18.30
2018-07-15T21:29:41.177Z,18.20
2018-07-15T21:32:09.704Z,18.10
2018-07-15T21:34:38.332Z,18.00
2018-07-15T21:37:07.396Z,18.00
2018-07-15T21:39:38.431Z,17.90
2018-07-15T21:42:13.540Z,17.80
2018-07-15T21:44:42.975Z,17.80
2018-07-15T21:47:11.720Z,17.70
2018-07-15T21:49:40.421Z,17.60
2018-07-15T21:52:09.278Z,17.60
2018-07-15T21:54:37.863Z,17.60
2018-07-15T21:57:06.547Z,17.50
2018-07-15T21:59:35.059Z,17.40
2018-07-15T22:02:04.013Z,17.40
2018-07-15T22:04:32.758Z,17.30
2018-07-15T22:07:12.513Z,17.20
2018-07-15T22:09:53.095Z,17.10
2018-07-15T22:12:21.976Z,17.10
2018-07-15T22:14:50.851Z,17.00
2018-07-15T22:17:20.803Z,17.00
2018-07-15T22:19:50.853Z,16.90
2018-07-15T22:22:19.514Z,16.90
2018-07-15T22:24:49.015Z,16.80
2018-07-15T22:27:26.169Z,16.70
2018-07-15T22:29:56.714Z,16.70
2018-07-15T22:32:25.371Z,16.60
2018-07-15T22:34:54.300Z,16.50
2018-07-15T22:37:23.088Z,16.40
2018-07-15T22:39:57.330Z,16.40
2018-07-15T22:42:43.434Z,16.30
2018-07-15T22:45:12.369Z,16.30
2018-07-15T22:47:40.966Z,16.20
2018-07-15T22:50:11.054Z,16.20
2018-07-15T22:52:39.710Z,16.20
2018-07-15T22:55:08.409Z,16.10
2018-07-15T22:57:51.657Z,16.00
2018-07-15T23:00:29.547Z,16.00
2018-07-15T23:02:59.760Z,15.90
2018-07-15T23:05:40.905Z,15.90
2018-07-15T23:08:09.842Z,15.90
2018-07-15T23:10:38.853Z,15.90
2018-07-15T23:13:08.414Z,15.80
2018-07-15T23:15:37.420Z,15.80
2018-07-15T23:18:06.227Z,15.70
2018-07-15T23:20:35.667Z,15.60
2018-07-15T23:23:05.165Z,15.60
2018-07-15T23:25:33.973Z,15.50
2018-07-15T23:28:03.420Z,15.50
2018-07-15T23:30:36.780Z,15.40
2018-07-15T23:33:06.645Z,15.40
2018-07-15T23:35:36.127Z,15.40
2018-07-15T23:38:04.834Z,15.30
2018-07-15T23:40:33.585Z,15.30
2018-07-15T23:43:02.476Z,15.30
2018-07-15T23:45:32.045Z,15.20
2018-07-15T23:48:00.561Z,15.20
2018-07-15T23:50:29.217Z,15.10
2018-07-15T23:52:57.888Z,15.00
2018-07-15T23:55:26.729Z,14.90
2018-07-15T23:57:57.120Z,14.90
